Port Charlotte, FL

8:26 AM EDT on September 23, 2014 (GMT -0400)
Port Charlotte Arlington Ct Canal | Change Station
CLOSE
Current Station
Personal Weather Station
Location: Port Charlotte, FL
Elevation: 8 ft
Nearby Weather Stations

Elev 8 ft 26.98 °N, 82.10 °W | Updated 10 seconds ago

Overcast
Overcast
73.4 °F
Feels Like 73.4 °F
N
2.3
Wind Variable Wind from SW
Gusts 2.3 mph

Today
High -- | Low -- °F
--% Chance of Precip.
Yesterday
High -- | Low -- °F
Precip. -- in
7:17 AM 7:23 PM
Waning Crescent, 1% visible
Pressure 30.03 in
Visibility 10.0 miles
Clouds Scattered Clouds 6500 ft
Overcast 9000 ft
Dew Point 73 °F
Humidity 99%
Rainfall 0.00 in
Snow Depth Not available.
UV 0 out of 12
Pollen 4.90 out of 12
Air Quality Not available.
Flu Activity Not available.
METAR KPGD 231153Z AUTO 13003KT 10SM SCT065 OVC090 23/22 A3003 RMK AO2 SLP169 70021 T02280222 10228 20222 51021

More Conditions Fewer Conditions

Pressure 30.03 in
Visibility 10.0 miles
Clouds Scattered Clouds 6500 ft
Overcast 9000 ft
Dew Point 73 °F
Humidity 99%
Rainfall 0.00 in
Snow Depth Not available.
UV 0 out of 12
Pollen 4.90 out of 12
Air Quality Not available.
Flu Activity Not available.
METAR KPGD 231153Z AUTO 13003KT 10SM SCT065 OVC090 23/22 A3003 RMK AO2 SLP169 70021 T02280222 10228 20222 51021

More Conditions Fewer Conditions

10-Day Weather Forecast

Almanac

Astronomy

Sep. 23, 2014 Rise Set
Actual Time 7:17 AM EDT 7:23 PM EDT
Civil Twilight 6:54 AM EDT 7:46 PM EDT
Nautical Twilight 6:27 AM EDT 8:13 PM EDT
Astronomical Twilight 5:59 AM EDT 8:40 PM EDT
Moon 6:41 AM EDT 7:03 PM EDT
Length of Visible Light 12h 52m
Length of Day
12h 06m
Tomorrow will be 1m 35s shorter.
Waning Crescent, 1% of the Moon is Illuminated
Today
Waning Crescent
Sep 24
New
Oct 1
First Quarter
Oct 8
Full
Oct 15
Last Quarter

Today's Extremes

State Highs State Lows

Community

WunderPhotos

Upload Photos

1,755,659 photos uploaded!

WunderBlogs® & News

Nearby

Snow Depth

Station Depth Elevation
No new snow has been reported.

Earthquake Activity

City Distance Mag. Time & Date
No recent earthquake activity has been reported nearby.
Minimum magnitude displayed is 2.5.

Coastal Water Temperatures

Place Temperature
No Stations Reporting

Nearby Weather Stations